Fairfield, South Carolina
Current Conditions -  °F | °C
As of 3:35 AM on Tuesday 27 Jan 2015 (Local Time) from KHXD Reporting Station
Clear Clear  
Wind Chill: 34°   Ceiling: Unl
Heat Index: 39°   Visibility: 10mi
Dew Point: 32°   Wind: 7mph
Humidity: 75%   Direction: 260°W
Pressure: 29.87"   Gusts: 17mph
Location:  32.1625°N, 80.7541°W
Report Text: KHXD 270835Z AUTO 26006G15KT 010V020 10SM CLR 04/00 A2987 RMK AO2 P0000
Loading
Personal Weather Stations






























Interactive Weather Map New forecast layout! Learn more

10-Day Weather Forecast

Advertisements
Track Severe Weather on mobile